Pattersonville, Ohio
Current Conditions -  °F | °C
As of 1:51 PM on Tuesday 27 Jan 2015 (Local Time) from KCAK Reporting Station
Light Snow Light Snow  
Wind Chill:   Ceiling: 2200
Heat Index: 21°   Visibility: 8mi
Dew Point: 12°   Wind: 15mph
Humidity: 68%   Direction: 340°NNW
Pressure: 29.99"   Gusts: NA
Location:  40.7427°N, 81.0929°W
Report Text: KCAK 271851Z 34013KT 8SM -SN OVC022 M06/M11 A2999 RMK AO2 SLP174 P0000 T10611111 $
Loading
Personal Weather Stations






























Interactive Weather Map New forecast layout! Learn more

10-Day Weather Forecast

Advertisements
Track Severe Weather on mobile